Time;durP1;ratioP1;P1;durP2;ratioP2;P2;SDS_P1;SDS_P2;PMS_P1;PMS_P2;Temp;Humidity;BMP_temperature;BMP_pressure;BME280_temperature;BME280_humidity;BME280_pressure;Samples;Min_cycle;Max_cycle;Signal;HPM_P1;HPM_P2
2021/05/13 00:03:51;;;;;;;;;;;;;;;12.02;74.18;99167.91;2180564;40;19934;-80
2021/05/13 00:05:23;;;;;;;;;;;;;;;12.00;74.17;99165.41;2220382;40;19949;-78
2021/05/13 00:06:54;;;;;;;;;;;;;;;11.91;74.39;99171.78;2223569;40;19933;-77
2021/05/13 00:08:25;;;;;;;;;;;;;;;11.84;74.62;99168.13;2231331;39;19937;-77
2021/05/13 00:09:56;;;;;;;;;;;;;;;11.80;74.73;99159.63;2229081;40;19984;-78
2021/05/13 00:11:30;;;;;;;;;;;;;;;11.80;74.83;99169.50;2228786;40;19938;-79
2021/05/13 00:13:03;;;;;;;;;;;;;;;11.79;74.86;99160.63;2228992;40;19986;-80
2021/05/13 00:14:44;;;;;;;;;;;;;;;11.81;74.76;99161.28;2203160;40;19937;-84
2021/05/13 00:16:15;;;;;;;;;;;;;;;11.83;74.73;99169.13;2223352;40;19947;-78
2021/05/13 00:17:46;;;;;;;;;;;;;;;11.82;74.64;99159.44;2227709;40;19987;-78
2021/05/13 00:25:52;;;;;;;;;;;;;;;11.63;75.10;99153.47;2228867;40;19937;-78
2021/05/13 00:27:23;;;;;;;;;;;;;;;11.57;75.19;99143.47;2228134;40;20217;-80
2021/05/13 00:31:01;;;;;;;;;;;;;;;11.54;75.30;99154.53;2223912;40;20576;-77
2021/05/13 00:32:32;;;;;;;;;;;;;;;11.53;75.42;99139.47;2232894;40;19940;-80
2021/05/13 00:34:03;;;;;;;;;;;;;;;11.54;75.37;99139.31;2230650;40;19953;-80
2021/05/13 00:35:34;;;;;;;;;;;;;;;11.55;75.30;99137.47;2228573;40;19929;-78
2021/05/13 00:40:53;;;;;;;;;;;;;;;11.50;75.46;99146.00;2216416;40;20281;-79
2021/05/13 00:46:39;;;;;;;;;;;;;;;11.39;75.85;99141.03;2222818;40;19941;-79
2021/05/13 00:52:26;;;;;;;;;;;;;;;11.28;76.25;99142.22;2217147;40;20286;-80
2021/05/13 00:53:57;;;;;;;;;;;;;;;11.27;76.24;99137.88;2215729;40;19964;-77
2021/05/13 00:55:28;;;;;;;;;;;;;;;11.28;76.22;99144.91;2224778;40;19944;-77
2021/05/13 00:57:00;;;;;;;;;;;;;;;11.31;76.24;99149.06;2221168;40;19925;-79
2021/05/13 00:58:34;;;;;;;;;;;;;;;11.30;76.14;99150.94;2221096;40;19933;-78
2021/05/13 01:00:28;;;;;;;;;;;;;;;11.28;76.16;99157.47;2221708;40;19929;-77
2021/05/13 01:01:59;;;;;;;;;;;;;;;11.30;76.19;99155.44;2223691;40;19942;-77
2021/05/13 01:05:42;;;;;;;;;;;;;;;11.24;76.24;99163.16;2220896;40;19936;-77
2021/05/13 01:07:13;;;;;;;;;;;;;;;11.22;76.35;99157.13;2223307;40;19954;-77
2021/05/13 01:13:21;;;;;;;;;;;;;;;10.91;77.10;99157.84;2208424;40;19937;-81
2021/05/13 01:14:59;;;;;;;;;;;;;;;10.88;77.51;99154.66;2202954;40;19968;-82
2021/05/13 01:16:43;;;;;;;;;;;;;;;10.89;77.56;99159.03;2222347;40;19999;-80
2021/05/13 01:20:31;;;;;;;;;;;;;;;10.98;77.42;99155.34;2219404;40;19948;-81
2021/05/13 01:22:03;;;;;;;;;;;;;;;11.03;77.17;99158.34;2219396;40;19948;-79
2021/05/13 01:23:35;;;;;;;;;;;;;;;11.05;77.08;99155.50;2220470;40;19935;-80
2021/05/13 01:25:06;;;;;;;;;;;;;;;11.06;76.98;99158.00;2220226;40;19933;-79
2021/05/13 01:27:02;;;;;;;;;;;;;;;11.08;76.93;99153.31;2200021;40;19945;-81
2021/05/13 01:28:33;;;;;;;;;;;;;;;11.11;76.93;99153.97;2219536;40;19956;-79
2021/05/13 01:30:05;;;;;;;;;;;;;;;11.12;76.92;99155.66;2192462;40;19949;-78
2021/05/13 01:31:52;;;;;;;;;;;;;;;11.12;76.77;99159.16;2226231;40;19953;-81
2021/05/13 01:35:54;;;;;;;;;;;;;;;11.14;76.80;99153.66;2190945;40;20007;-81
2021/05/13 01:37:26;;;;;;;;;;;;;;;11.10;76.90;99150.47;2197620;40;20002;-78
2021/05/13 01:38:57;;;;;;;;;;;;;;;11.05;76.94;99150.97;2168678;40;19954;-79
2021/05/13 01:40:28;;;;;;;;;;;;;;;11.06;77.10;99147.28;2196475;40;19974;-79
2021/05/13 01:41:59;;;;;;;;;;;;;;;11.08;76.97;99144.47;2175275;40;19941;-79
2021/05/13 01:43:31;;;;;;;;;;;;;;;11.09;76.90;99140.78;2211054;40;19993;-80
2021/05/13 01:45:02;;;;;;;;;;;;;;;11.14;76.90;99145.63;2186634;40;19946;-78
2021/05/13 01:50:58;;;;;;;;;;;;;;;11.14;76.78;99148.31;2208164;40;20345;-82
2021/05/13 01:52:30;;;;;;;;;;;;;;;11.15;76.72;99141.91;2214226;40;20229;-79
2021/05/13 01:58:17;;;;;;;;;;;;;;;11.09;76.82;99138.13;2219281;40;19937;-78
2021/05/13 02:12:41;;;;;;;;;;;;;;;10.97;77.22;99134.13;2195395;40;19938;-80
2021/05/13 02:14:12;;;;;;;;;;;;;;;10.95;77.17;99120.94;2194232;40;19994;-80
2021/05/13 02:22:13;;;;;;;;;;;;;;;10.95;77.28;99112.91;2172654;41;19935;-78
2021/05/13 02:23:44;;;;;;;;;;;;;;;10.96;77.31;99117.22;2166823;41;19928;-79
2021/05/13 02:25:15;;;;;;;;;;;;;;;10.98;77.31;99112.53;2181416;40;19941;-79
2021/05/13 02:26:46;;;;;;;;;;;;;;;10.97;77.29;99110.88;2193874;40;19965;-80
2021/05/13 02:28:19;;;;;;;;;;;;;;;10.98;77.32;99112.53;2211554;40;19938;-79
2021/05/13 02:29:50;;;;;;;;;;;;;;;10.97;77.40;99116.22;2219455;40;19945;-77
2021/05/13 02:31:21;;;;;;;;;;;;;;;10.99;77.42;99108.88;2222279;40;19961;-79
2021/05/13 02:32:52;;;;;;;;;;;;;;;11.02;77.25;99107.69;2221691;40;19945;-78
2021/05/13 02:34:23;;;;;;;;;;;;;;;11.03;77.34;99112.03;2223520;40;19934;-77
2021/05/13 02:35:54;;;;;;;;;;;;;;;10.99;77.19;99106.19;2216330;40;19936;-79
2021/05/13 02:37:25;;;;;;;;;;;;;;;10.92;77.34;99099.88;2223111;40;19928;-78
2021/05/13 02:38:57;;;;;;;;;;;;;;;10.92;77.46;99107.88;2221046;40;19936;-78
2021/05/13 02:40:28;;;;;;;;;;;;;;;10.92;77.45;99097.19;2220721;40;19968;-79
2021/05/13 02:46:15;;;;;;;;;;;;;;;10.84;77.56;99099.88;2220525;40;19937;-79
2021/05/13 02:47:46;;;;;;;;;;;;;;;10.82;77.60;99097.34;2218650;40;20013;-80
2021/05/13 02:49:27;;;;;;;;;;;;;;;10.81;77.63;99095.72;2219876;40;20208;-79
2021/05/13 02:50:58;;;;;;;;;;;;;;;10.76;77.72;99093.56;2191140;40;19949;-79
2021/05/13 02:52:29;;;;;;;;;;;;;;;10.73;77.70;99093.88;2221181;40;19937;-78
2021/05/13 03:04:41;;;;;;;;;;;;;;;10.67;77.70;99099.91;2212550;40;19938;-80
2021/05/13 03:06:11;;;;;;;;;;;;;;;10.62;77.83;99096.88;2219094;40;19983;-79
2021/05/13 03:11:04;;;;;;;;;;;;;;;10.66;77.80;99103.59;2226712;40;20002;-79
2021/05/13 03:12:35;;;;;;;;;;;;;;;10.65;77.72;99104.59;2179658;40;19946;-79
2021/05/13 03:14:06;;;;;;;;;;;;;;;10.64;77.77;99100.25;2202994;40;19961;-78
2021/05/13 03:15:37;;;;;;;;;;;;;;;10.61;77.82;99106.75;2171248;40;19947;-78
2021/05/13 03:17:09;;;;;;;;;;;;;;;10.61;77.72;99105.91;2198109;40;19946;-80
2021/05/13 03:18:42;;;;;;;;;;;;;;;10.63;77.84;99108.44;2207197;40;20334;-78
2021/05/13 03:20:15;;;;;;;;;;;;;;;10.65;77.71;99109.94;2205739;40;19945;-79
2021/05/13 03:21:47;;;;;;;;;;;;;;;10.66;77.61;99102.72;2183839;40;19942;-79
2021/05/13 03:40:27;;;;;;;;;;;;;;;10.40;78.34;99107.25;2218936;40;19944;-79
2021/05/13 03:42:04;;;;;;;;;;;;;;;10.33;78.57;99108.06;2193161;39;19946;-80
2021/05/13 03:43:39;;;;;;;;;;;;;;;10.27;78.74;99098.88;2214209;40;20400;-81
2021/05/13 03:45:10;;;;;;;;;;;;;;;10.32;78.86;99101.88;2215463;40;19953;-80
2021/05/13 03:46:41;;;;;;;;;;;;;;;10.38;78.78;99100.41;2215784;40;19965;-80
2021/05/13 03:48:13;;;;;;;;;;;;;;;10.44;78.56;99097.91;2209051;40;19942;-78
2021/05/13 03:49:50;;;;;;;;;;;;;;;10.48;78.39;99094.91;2208624;40;19993;-81
2021/05/13 03:51:34;;;;;;;;;;;;;;;10.54;78.29;99096.91;2185323;40;19942;-80
2021/05/13 03:53:06;;;;;;;;;;;;;;;10.56;78.08;99086.88;2205206;40;19949;-79
2021/05/13 03:54:37;;;;;;;;;;;;;;;10.55;78.08;99094.06;2179095;40;19942;-78
2021/05/13 03:56:10;;;;;;;;;;;;;;;10.55;78.10;99094.06;2209256;40;19945;-80
2021/05/13 04:02:49;;;;;;;;;;;;;;;10.53;77.98;99087.22;2228691;39;19948;-81
2021/05/13 04:04:20;;;;;;;;;;;;;;;10.52;78.09;99080.19;2228691;40;20459;-81
2021/05/13 04:05:58;;;;;;;;;;;;;;;10.52;78.14;99088.22;2208691;40;19949;-83
2021/05/13 04:07:32;;;;;;;;;;;;;;;10.52;78.16;99090.88;2227231;40;20214;-79
2021/05/13 04:20:10;;;;;;;;;;;;;;;10.59;78.08;99087.38;2189643;40;20408;-81
2021/05/13 04:21:42;;;;;;;;;;;;;;;10.60;77.96;99090.88;2169466;40;19935;-79
2021/05/13 04:23:13;;;;;;;;;;;;;;;10.58;77.98;99084.88;2195449;40;19946;-80
2021/05/13 04:24:45;;;;;;;;;;;;;;;10.56;78.02;99087.72;2188183;40;19953;-79
2021/05/13 04:26:16;;;;;;;;;;;;;;;10.52;78.08;99090.88;2184003;40;19943;-78
2021/05/13 04:27:48;;;;;;;;;;;;;;;10.52;78.19;99090.88;2197989;40;19990;-79
2021/05/13 04:29:23;;;;;;;;;;;;;;;10.50;78.17;99088.38;2204121;40;19982;-82
2021/05/13 04:30:54;;;;;;;;;;;;;;;10.55;78.07;99080.69;2166742;40;20025;-79
2021/05/13 04:32:25;;;;;;;;;;;;;;;10.55;78.12;99080.69;2189975;40;19942;-78
2021/05/13 04:33:56;;;;;;;;;;;;;;;10.57;78.08;99089.38;2140730;41;19940;-79
2021/05/13 04:35:28;;;;;;;;;;;;;;;10.63;78.08;99087.06;2150076;40;20010;-78
2021/05/13 04:36:59;;;;;;;;;;;;;;;10.67;77.96;99089.22;2171365;41;19956;-79
2021/05/13 04:38:31;;;;;;;;;;;;;;;10.66;77.80;99081.34;2157843;40;20561;-77
2021/05/13 04:40:02;;;;;;;;;;;;;;;10.55;77.85;99085.22;2160592;41;20444;-78
2021/05/13 04:41:34;;;;;;;;;;;;;;;10.40;78.28;99085.88;2134385;41;19955;-78
2021/05/13 04:43:05;;;;;;;;;;;;;;;10.30;78.64;99087.84;2168557;41;19946;-80
2021/05/13 04:44:37;;;;;;;;;;;;;;;10.26;78.87;99091.84;2164516;40;20067;-79
2021/05/13 04:46:08;;;;;;;;;;;;;;;10.24;79.12;99085.84;2172419;41;19942;-79
2021/05/13 04:48:02;;;;;;;;;;;;;;;10.29;79.10;99088.88;2178661;40;25182;-78
2021/05/13 04:49:34;;;;;;;;;;;;;;;10.30;79.11;99087.84;2199362;40;20036;-80
2021/05/13 04:51:06;;;;;;;;;;;;;;;10.35;79.00;99080.19;2189274;40;19926;-77
2021/05/13 04:52:37;;;;;;;;;;;;;;;10.37;78.78;99080.00;2213965;40;19933;-78
2021/05/13 05:00:32;;;;;;;;;;;;;;;10.36;78.80;99076.50;2235026;39;19936;-79
2021/05/13 05:02:04;;;;;;;;;;;;;;;10.43;78.88;99074.84;2227289;40;19940;-80
2021/05/13 05:03:35;;;;;;;;;;;;;;;10.51;78.71;99068.69;2226721;39;19933;-77
2021/05/13 05:18:01;;;;;;;;;;;;;;;10.86;77.71;99060.44;2223728;40;19940;-79
2021/05/13 05:19:33;;;;;;;;;;;;;;;10.89;77.64;99066.28;2232069;40;19943;-80
2021/05/13 05:21:04;;;;;;;;;;;;;;;10.95;77.57;99063.91;2227374;39;19952;-79
2021/05/13 05:22:36;;;;;;;;;;;;;;;10.98;77.50;99066.25;2227084;40;19941;-79
2021/05/13 05:24:08;;;;;;;;;;;;;;;11.02;77.34;99064.91;2226233;40;19928;-79
2021/05/13 05:25:39;;;;;;;;;;;;;;;11.04;77.38;99068.25;2226645;40;19937;-79
2021/05/13 05:27:11;;;;;;;;;;;;;;;11.06;77.21;99064.38;2223163;39;19940;-80
2021/05/13 05:28:43;;;;;;;;;;;;;;;11.12;77.22;99054.84;2224242;40;19940;-77
2021/05/13 05:30:20;;;;;;;;;;;;;;;11.13;77.10;99055.69;2223515;40;19945;-80
2021/05/13 05:31:54;;;;;;;;;;;;;;;11.15;77.04;99050.97;2228121;40;19940;-82
2021/05/13 05:33:28;;;;;;;;;;;;;;;11.13;77.02;99053.84;2226806;40;19948;-81
2021/05/13 05:35:03;;;;;;;;;;;;;;;11.14;77.05;99052.00;2227968;40;19943;-81
2021/05/13 05:36:35;;;;;;;;;;;;;;;11.15;77.02;99056.31;2227057;40;19977;-81
2021/05/13 05:38:14;;;;;;;;;;;;;;;11.18;77.02;99053.31;2229661;40;19948;-81
2021/05/13 05:39:46;;;;;;;;;;;;;;;11.19;76.87;99052.31;2228228;40;19929;-81
2021/05/13 05:41:20;;;;;;;;;;;;;;;11.21;76.96;99052.97;2229597;40;19963;-81
2021/05/13 05:43:00;;;;;;;;;;;;;;;11.25;76.90;99040.91;2221139;40;19929;-81
2021/05/13 05:47:05;;;;;;;;;;;;;;;11.31;76.80;99044.72;2223514;40;19933;-82
2021/05/13 05:48:37;;;;;;;;;;;;;;;11.31;76.74;99040.22;2219173;40;19929;-80
2021/05/13 05:50:14;;;;;;;;;;;;;;;11.40;76.68;99043.69;2227964;40;19952;-81
2021/05/13 05:55:20;;;;;;;;;;;;;;;11.54;76.18;99037.59;3333605;23;19949;-79
2021/05/13 05:56:52;;;;;;;;;;;;;;;11.56;76.23;99034.75;2217685;40;19972;-81
2021/05/13 05:58:23;;;;;;;;;;;;;;;11.64;76.12;99031.19;2227026;40;19963;-80
2021/05/13 05:59:55;;;;;;;;;;;;;;;11.61;75.87;99035.06;2221043;40;19948;-81
2021/05/13 06:01:28;;;;;;;;;;;;;;;11.63;75.99;99034.88;2222515;40;19941;-80
2021/05/13 06:02:59;;;;;;;;;;;;;;;11.73;75.90;99035.50;2221846;40;19937;-78
2021/05/13 06:04:33;;;;;;;;;;;;;;;11.83;75.66;99030.75;2223280;40;19984;-80
2021/05/13 06:06:06;;;;;;;;;;;;;;;11.93;75.42;99041.19;2223267;40;19933;-79
2021/05/13 06:07:37;;;;;;;;;;;;;;;11.98;75.27;99033.50;2220434;40;19940;-78
2021/05/13 06:09:10;;;;;;;;;;;;;;;12.01;75.06;99035.81;2221725;40;19925;-79
2021/05/13 06:10:43;;;;;;;;;;;;;;;11.99;74.94;99040.53;2222889;40;19944;-79
2021/05/13 06:12:16;;;;;;;;;;;;;;;11.89;75.04;99042.59;2221446;39;19925;-78
2021/05/13 06:13:47;;;;;;;;;;;;;;;11.88;75.25;99048.09;2224822;40;20001;-78
2021/05/13 06:15:21;;;;;;;;;;;;;;;11.95;75.23;99054.44;2215063;40;19929;-80
2021/05/13 06:16:53;;;;;;;;;;;;;;;12.02;74.97;99044.69;2216052;40;20522;-79
2021/05/13 06:18:24;;;;;;;;;;;;;;;12.05;74.89;99047.00;2217813;40;19929;-79
2021/05/13 06:20:00;;;;;;;;;;;;;;;12.11;74.72;99046.31;2220553;40;19937;-77
2021/05/13 06:21:32;;;;;;;;;;;;;;;12.16;74.75;99051.13;2220309;39;19945;-79
2021/05/13 06:23:03;;;;;;;;;;;;;;;12.18;74.58;99043.75;2215182;40;19952;-78
2021/05/13 06:24:34;;;;;;;;;;;;;;;12.22;74.51;99045.03;2215570;40;20260;-79
2021/05/13 06:26:05;;;;;;;;;;;;;;;12.25;74.21;99035.81;2226172;40;19964;-79
2021/05/13 06:27:40;;;;;;;;;;;;;;;12.31;74.23;99045.81;2199527;40;19944;-80
2021/05/13 06:30:46;;;;;;;;;;;;;;;12.47;73.75;99044.81;2216325;40;19940;-79
2021/05/13 06:32:17;;;;;;;;;;;;;;;12.51;73.61;99038.09;2213939;40;19945;-80
2021/05/13 06:33:48;;;;;;;;;;;;;;;12.53;73.42;99041.44;2207444;40;19946;-79
2021/05/13 06:35:21;;;;;;;;;;;;;;;12.55;73.45;99034.03;2204929;40;19953;-79
2021/05/13 06:36:53;;;;;;;;;;;;;;;12.58;73.38;99039.03;2196200;40;20554;-80
2021/05/13 06:38:27;;;;;;;;;;;;;;;12.61;73.22;99037.84;2209762;40;19952;-80
2021/05/13 06:39:59;;;;;;;;;;;;;;;12.65;73.12;99033.75;2213027;40;20016;-81
2021/05/13 06:41:30;;;;;;;;;;;;;;;12.67;73.03;99041.63;2208698;40;19957;-79
2021/05/13 06:43:01;;;;;;;;;;;;;;;12.67;73.06;99042.47;2212142;40;20424;-79
2021/05/13 06:44:33;;;;;;;;;;;;;;;12.71;72.91;99040.25;2210466;40;19961;-81
2021/05/13 06:46:04;;;;;;;;;;;;;;;12.70;72.84;99043.94;2213438;40;20518;-80
2021/05/13 06:47:38;;;;;;;;;;;;;;;12.69;72.76;99040.44;2211509;40;19945;-81
2021/05/13 06:49:09;;;;;;;;;;;;;;;12.62;72.90;99037.66;2217306;40;19960;-80
2021/05/13 06:50:41;;;;;;;;;;;;;;;12.69;72.90;99039.59;2210644;40;19937;-80
2021/05/13 06:52:12;;;;;;;;;;;;;;;12.76;72.70;99045.88;2216008;40;20351;-79
2021/05/13 06:53:43;;;;;;;;;;;;;;;12.85;72.57;99044.78;2217251;39;19949;-79
2021/05/13 06:55:14;;;;;;;;;;;;;;;12.99;72.41;99043.13;2219067;40;19960;-79
2021/05/13 06:56:47;;;;;;;;;;;;;;;13.11;72.15;99036.28;2217333;40;20241;-79
2021/05/13 06:58:18;;;;;;;;;;;;;;;13.25;71.97;99033.78;2220218;40;19937;-80
2021/05/13 06:59:49;;;;;;;;;;;;;;;13.36;71.67;99038.69;2217860;40;19944;-79
2021/05/13 07:01:22;;;;;;;;;;;;;;;13.43;71.50;99044.13;2223852;40;19937;-79
2021/05/13 07:02:53;;;;;;;;;;;;;;;13.46;71.48;99037.56;2221551;40;19941;-79
2021/05/13 07:04:26;;;;;;;;;;;;;;;13.51;71.33;99048.56;2216859;40;19937;-80
2021/05/13 07:05:58;;;;;;;;;;;;;;;13.61;71.00;99042.88;2189378;39;19949;-80
2021/05/13 07:07:29;;;;;;;;;;;;;;;13.68;71.05;99046.50;2212055;40;20257;-80
2021/05/13 07:09:01;;;;;;;;;;;;;;;13.73;70.76;99042.22;2215991;39;19945;-79
2021/05/13 07:10:34;;;;;;;;;;;;;;;13.85;70.65;99036.34;2219154;40;19944;-80
2021/05/13 07:12:06;;;;;;;;;;;;;;;13.98;70.13;99043.72;2217754;40;19948;-80
2021/05/13 07:13:37;;;;;;;;;;;;;;;14.11;70.03;99043.84;2219952;40;19941;-80
2021/05/13 07:15:09;;;;;;;;;;;;;;;14.25;69.75;99030.53;2217597;40;19949;-79
2021/05/13 07:16:40;;;;;;;;;;;;;;;14.42;69.01;99023.00;2220015;40;20563;-80
2021/05/13 07:18:13;;;;;;;;;;;;;;;14.56;68.58;99030.16;2219107;40;20306;-79
2021/05/13 07:19:44;;;;;;;;;;;;;;;14.74;68.23;99026.16;2220570;40;19941;-78
2021/05/13 07:21:15;;;;;;;;;;;;;;;14.90;67.66;99014.28;2220658;39;19944;-80
2021/05/13 07:22:46;;;;;;;;;;;;;;;15.07;67.38;99007.53;2221753;40;19965;-80
2021/05/13 07:24:17;;;;;;;;;;;;;;;15.17;66.80;99009.03;2220072;40;19940;-80
2021/05/13 07:25:48;;;;;;;;;;;;;;;15.23;66.31;99009.06;2219996;40;19941;-80
2021/05/13 07:27:21;;;;;;;;;;;;;;;15.32;66.18;99012.38;2216977;40;19952;-80
2021/05/13 07:28:52;;;;;;;;;;;;;;;15.38;65.78;99008.91;2223858;40;20046;-80
2021/05/13 07:30:24;;;;;;;;;;;;;;;15.56;65.45;99008.34;2217847;40;20416;-79
2021/05/13 07:31:55;;;;;;;;;;;;;;;15.62;64.78;99000.50;2219230;40;19929;-79
2021/05/13 07:33:27;;;;;;;;;;;;;;;15.71;64.15;99010.03;2221787;40;19930;-83
2021/05/13 07:34:59;;;;;;;;;;;;;;;15.79;63.45;99000.91;2215572;40;20302;-82
2021/05/13 07:36:31;;;;;;;;;;;;;;;15.88;63.22;99002.41;2215820;40;19982;-84
2021/05/13 07:38:03;;;;;;;;;;;;;;;16.04;62.58;98999.34;2216934;40;19938;-84
2021/05/13 07:39:34;;;;;;;;;;;;;;;16.24;62.20;98998.53;2214888;40;19949;-84
2021/05/13 07:41:06;;;;;;;;;;;;;;;16.45;60.99;98993.94;2217526;40;20419;-79
2021/05/13 07:42:38;;;;;;;;;;;;;;;16.26;60.66;99001.81;2216867;40;19945;-80
2021/05/13 07:44:10;;;;;;;;;;;;;;;16.13;60.69;98991.06;2219827;40;19941;-80
2021/05/13 07:45:43;;;;;;;;;;;;;;;16.03;60.17;98994.16;2219726;39;19944;-80
2021/05/13 07:47:15;;;;;;;;;;;;;;;16.13;60.50;98991.06;2229850;40;19937;-82
2021/05/13 07:48:51;;;;;;;;;;;;;;;16.35;60.36;98991.69;2228138;40;19925;-82
2021/05/13 07:50:25;;;;;;;;;;;;;;;16.57;59.52;98992.28;2228206;40;19949;-80
2021/05/13 07:52:04;;;;;;;;;;;;;;;16.54;59.48;98987.28;2229463;40;19945;-82
2021/05/13 07:53:40;;;;;;;;;;;;;;;16.72;59.28;98992.03;2215325;40;19958;-79
2021/05/13 07:55:20;;;;;;;;;;;;;;;17.01;58.48;98992.63;2217420;40;20523;-84
2021/05/13 07:56:56;;;;;;;;;;;;;;;17.28;58.13;98985.25;2222106;40;19932;-87
2021/05/13 07:58:31;;;;;;;;;;;;;;;17.39;57.43;98978.34;2210292;40;19938;-86
2021/05/13 08:00:09;;;;;;;;;;;;;;;17.49;57.17;98977.06;2186059;40;20403;-84
2021/05/13 08:01:45;;;;;;;;;;;;;;;17.61;56.56;98986.13;2202475;40;19944;-86
2021/05/13 08:03:21;;;;;;;;;;;;;;;17.36;56.15;98983.34;2204465;40;19950;-86
2021/05/13 08:04:58;;;;;;;;;;;;;;;17.17;55.50;98985.94;2197813;40;19946;-85
2021/05/13 08:06:34;;;;;;;;;;;;;;;17.06;55.78;98978.50;2208686;40;20005;-85
2021/05/13 08:08:12;;;;;;;;;;;;;;;17.09;55.92;98983.47;2217207;40;19933;-84
2021/05/13 08:09:43;;;;;;;;;;;;;;;17.18;55.73;98987.59;2215586;40;19925;-83
2021/05/13 08:11:15;;;;;;;;;;;;;;;17.17;55.31;98980.53;2217352;40;19969;-82
2021/05/13 08:12:45;;;;;;;;;;;;;;;17.39;55.19;98983.75;2216127;40;20084;-82
2021/05/13 08:14:17;;;;;;;;;;;;;;;17.56;54.60;98980.53;2220835;40;19952;-82
2021/05/13 08:15:48;;;;;;;;;;;;;;;17.78;54.39;98964.81;2219526;39;19956;-83
2021/05/13 08:17:19;;;;;;;;;;;;;;;17.91;53.87;98982.81;2219903;39;19968;-84
2021/05/13 08:18:52;;;;;;;;;;;;;;;17.91;53.63;98977.41;2220452;40;19937;-85
2021/05/13 08:20:23;;;;;;;;;;;;;;;18.06;53.42;98977.13;2221214;39;19940;-85
2021/05/13 08:21:56;;;;;;;;;;;;;;;18.16;52.27;98969.34;2221060;40;19949;-85
2021/05/13 08:23:28;;;;;;;;;;;;;;;18.00;52.40;98978.00;2207013;40;19945;-82
2021/05/13 08:24:59;;;;;;;;;;;;;;;18.01;52.63;98975.06;2208452;40;20023;-84
2021/05/13 08:26:30;;;;;;;;;;;;;;;18.19;52.04;98968.91;2216100;40;19949;-85
2021/05/13 08:28:01;;;;;;;;;;;;;;;18.25;51.45;98972.59;2197170;40;19962;-85
2021/05/13 08:29:33;;;;;;;;;;;;;;;18.35;51.21;98969.38;2193448;40;19961;-82
2021/05/13 08:31:04;;;;;;;;;;;;;;;18.46;51.19;98960.53;2213606;40;19930;-86
2021/05/13 08:32:36;;;;;;;;;;;;;;;18.78;50.72;98965.00;2209832;40;19949;-83
2021/05/13 08:34:07;;;;;;;;;;;;;;;18.64;49.86;98958.91;2205774;40;19948;-81
2021/05/13 08:35:38;;;;;;;;;;;;;;;18.54;50.41;98956.75;2199625;40;22752;-84
2021/05/13 08:37:11;;;;;;;;;;;;;;;18.85;50.00;98965.75;2207403;40;19941;-83
2021/05/13 08:38:45;;;;;;;;;;;;;;;19.21;49.44;98960.59;2209008;40;20277;-83
2021/05/13 08:40:20;;;;;;;;;;;;;;;19.46;48.93;98953.16;2207394;40;19957;-86
2021/05/13 08:41:55;;;;;;;;;;;;;;;19.75;48.58;98952.56;2195988;40;19941;-86
2021/05/13 08:43:28;;;;;;;;;;;;;;;20.01;48.28;98951.34;2216086;40;19941;-85
2021/05/13 08:45:00;;;;;;;;;;;;;;;20.26;47.12;98955.72;2167760;40;19942;-85
2021/05/13 08:46:31;;;;;;;;;;;;;;;20.37;46.65;98941.34;2184478;40;19951;-84
2021/05/13 08:48:03;;;;;;;;;;;;;;;20.52;45.63;98949.03;2185126;40;20373;-85
2021/05/13 08:49:34;;;;;;;;;;;;;;;20.57;44.45;98940.16;2208704;40;19946;-87
2021/05/13 08:51:06;;;;;;;;;;;;;;;20.62;44.28;98953.84;2177627;40;19949;-84
2021/05/13 08:52:38;;;;;;;;;;;;;;;20.65;43.59;98945.22;2203450;40;19946;-85
2021/05/13 08:54:10;;;;;;;;;;;;;;;20.41;43.89;98944.41;2209358;40;19950;-83
2021/05/13 08:55:42;;;;;;;;;;;;;;;20.19;44.83;98955.84;2203912;40;20218;-86
2021/05/13 08:57:15;;;;;;;;;;;;;;;20.16;44.57;98948.19;2204361;40;19937;-86
2021/05/13 08:58:46;;;;;;;;;;;;;;;19.98;44.55;98942.88;2205052;40;20968;-85
2021/05/13 09:00:18;;;;;;;;;;;;;;;19.67;44.47;98953.69;2209625;40;19978;-84
2021/05/13 09:01:57;;;;;;;;;;;;;;;19.78;44.36;98946.69;2208808;40;19949;-81
2021/05/13 09:03:32;;;;;;;;;;;;;;;19.95;44.19;98944.13;2208643;40;19960;-83
2021/05/13 09:05:04;;;;;;;;;;;;;;;20.10;44.02;98949.09;2210178;40;19941;-84
2021/05/13 09:06:41;;;;;;;;;;;;;;;20.35;43.54;98938.03;2212283;40;19937;-82
2021/05/13 09:08:20;;;;;;;;;;;;;;;20.62;43.28;98934.84;2220168;40;19929;-81
2021/05/13 09:09:56;;;;;;;;;;;;;;;21.08;42.65;98934.16;2182224;40;19990;-80
2021/05/13 09:11:29;;;;;;;;;;;;;;;21.11;41.81;98929.09;2179219;40;19952;-80
2021/05/13 09:13:01;;;;;;;;;;;;;;;20.97;41.48;98928.53;2202933;40;19954;-79
2021/05/13 09:14:34;;;;;;;;;;;;;;;20.56;41.04;98928.47;2201596;40;19946;-81
2021/05/13 09:16:23;;;;;;;;;;;;;;;20.36;41.08;98928.00;2203972;40;19930;-80
2021/05/13 09:18:02;;;;;;;;;;;;;;;20.34;40.43;98922.81;2213652;40;19933;-82
2021/05/13 09:19:34;;;;;;;;;;;;;;;20.56;39.80;98928.47;2215691;40;19977;-82
2021/05/13 09:21:07;;;;;;;;;;;;;;;20.93;38.12;98919.22;2198649;40;19943;-81
2021/05/13 09:22:38;;;;;;;;;;;;;;;20.56;38.04;98919.50;2209052;40;19965;-85
2021/05/13 09:24:10;;;;;;;;;;;;;;;20.48;38.33;98915.25;2189261;40;19945;-84
2021/05/13 09:25:43;;;;;;;;;;;;;;;20.26;38.85;98923.19;2196604;40;19953;-82
2021/05/13 09:27:15;;;;;;;;;;;;;;;20.04;39.86;98915.59;2207526;40;19953;-83
2021/05/13 09:28:48;;;;;;;;;;;;;;;19.86;40.22;98907.56;2207762;40;19941;-81
2021/05/13 09:30:21;;;;;;;;;;;;;;;19.84;40.01;98909.69;2193482;40;20037;-82
2021/05/13 09:31:52;;;;;;;;;;;;;;;19.75;40.29;98909.19;2197676;40;20341;-83
2021/05/13 09:33:27;;;;;;;;;;;;;;;19.62;41.31;98907.50;2171737;40;19939;-81
2021/05/13 09:35:03;;;;;;;;;;;;;;;20.00;41.27;98903.59;2183400;40;19947;-83
2021/05/13 09:36:35;;;;;;;;;;;;;;;19.99;41.55;98907.34;2179091;40;19956;-83
2021/05/13 09:38:07;;;;;;;;;;;;;;;20.00;41.69;98900.88;2183058;40;19997;-83
2021/05/13 09:39:44;;;;;;;;;;;;;;;20.05;41.87;98900.97;2183245;41;20494;-82
2021/05/13 09:41:27;;;;;;;;;;;;;;;20.37;41.44;98891.66;2174752;41;19949;-83
2021/05/13 09:43:09;;;;;;;;;;;;;;;20.52;40.50;98899.31;2131320;41;19949;-82
2021/05/13 09:44:41;;;;;;;;;;;;;;;20.72;40.48;98897.03;2145763;41;22633;-83
2021/05/13 09:46:12;;;;;;;;;;;;;;;20.95;40.34;98898.09;2150490;41;19941;-81
2021/05/13 09:47:43;;;;;;;;;;;;;;;21.10;39.99;98894.00;2154694;41;19944;-80
2021/05/13 09:49:14;;;;;;;;;;;;;;;21.29;39.75;98895.47;2141490;41;19948;-81
2021/05/13 09:50:45;;;;;;;;;;;;;;;21.50;39.33;98887.69;2143878;41;19944;-84
2021/05/13 09:52:34;;;;;;;;;;;;;;;21.75;38.68;98886.50;2165660;41;20365;-84
2021/05/13 09:54:07;;;;;;;;;;;;;;;21.59;38.66;98880.81;2190029;40;20298;-85
2021/05/13 09:55:38;;;;;;;;;;;;;;;21.01;38.98;98883.53;2195310;40;19942;-83
2021/05/13 09:57:09;;;;;;;;;;;;;;;20.66;39.90;98879.00;2151106;40;19941;-83
2021/05/13 09:58:41;;;;;;;;;;;;;;;20.85;40.16;98876.97;2191245;40;19949;-83
2021/05/13 10:00:29;;;;;;;;;;;;;;;21.40;39.29;98877.44;2189791;40;19990;-83
2021/05/13 10:02:01;;;;;;;;;;;;;;;21.41;38.39;98878.28;2194438;40;20239;-82
2021/05/13 10:03:31;;;;;;;;;;;;;;;21.02;38.81;98871.59;2202291;40;19949;-82
2021/05/13 10:05:04;;;;;;;;;;;;;;;21.12;38.71;98867.44;2208730;40;20234;-83
2021/05/13 10:06:35;;;;;;;;;;;;;;;21.18;38.66;98874.59;2203170;40;19942;-86
2021/05/13 10:08:07;;;;;;;;;;;;;;;21.51;38.20;98864.88;2208999;40;19984;-81
2021/05/13 10:09:38;;;;;;;;;;;;;;;21.65;38.10;98863.50;2208563;40;20337;-81
2021/05/13 10:11:09;;;;;;;;;;;;;;;21.81;37.71;98861.88;2208180;40;19957;-83
2021/05/13 10:12:42;;;;;;;;;;;;;;;22.14;37.34;98859.34;2202455;40;19969;-83
2021/05/13 10:14:13;;;;;;;;;;;;;;;22.49;36.34;98855.50;2207772;40;20027;-81
2021/05/13 10:15:45;;;;;;;;;;;;;;;22.69;35.67;98860.41;2208278;40;19997;-81
2021/05/13 10:17:17;;;;;;;;;;;;;;;22.66;35.67;98850.00;2208279;40;20455;-82
2021/05/13 10:18:52;;;;;;;;;;;;;;;22.48;35.76;98858.50;2201894;40;19996;-82
2021/05/13 10:20:24;;;;;;;;;;;;;;;22.40;35.77;98851.56;2206933;40;19946;-82
2021/05/13 10:21:55;;;;;;;;;;;;;;;22.78;35.02;98846.34;2209321;40;20408;-83
2021/05/13 10:23:28;;;;;;;;;;;;;;;22.94;34.47;98852.78;2210106;40;19937;-81
2021/05/13 10:25:18;;;;;;;;;;;;;;;22.47;35.18;98846.78;2215580;40;19996;-82
2021/05/13 10:26:49;;;;;;;;;;;;;;;22.61;35.34;98849.13;2200497;40;19949;-82